Time;durP1;ratioP1;P1;durP2;ratioP2;P2;SDS_P1;SDS_P2;PMS_P1;PMS_P2;Temp;Humidity;BMP_temperature;BMP_pressure;BME280_temperature;BME280_humidity;BME280_pressure;Samples;Min_cycle;Max_cycle;Signal;HPM_P1;HPM_P2
2023/11/14 00:01:38;;;;;;;27.58;13.77;;;;;;;4.90;100.00;97537.28;4977056;28;20025;-76
2023/11/14 00:04:04;;;;;;;24.45;12.27;;;;;;;4.85;100.00;97524.25;4993414;28;20034;-77
2023/11/14 00:06:29;;;;;;;23.77;11.25;;;;;;;4.76;100.00;97532.56;4993506;28;20038;-76
2023/11/14 00:08:55;;;;;;;21.45;11.13;;;;;;;4.77;100.00;97515.72;4993148;28;20543;-76
2023/11/14 00:11:21;;;;;;;22.02;10.70;;;;;;;4.79;100.00;97508.59;4976622;28;20056;-75
2023/11/14 00:13:47;;;;;;;20.75;11.20;;;;;;;4.86;100.00;97518.00;4993336;28;20033;-77
2023/11/14 00:16:12;;;;;;;22.20;11.90;;;;;;;4.87;100.00;97533.00;4976530;28;20501;-76
2023/11/14 00:18:38;;;;;;;29.33;14.32;;;;;;;4.89;100.00;97528.47;4976954;28;20121;-76
2023/11/14 00:21:04;;;;;;;29.00;13.30;;;;;;;4.92;100.00;97525.72;4975358;28;20474;-75
2023/11/14 00:23:29;;;;;;;33.03;14.70;;;;;;;4.99;100.00;97536.06;4993283;28;20045;-76
2023/11/14 00:25:55;;;;;;;28.08;14.65;;;;;;;4.98;100.00;97527.28;5010330;28;20125;-76
2023/11/14 00:28:21;;;;;;;28.17;14.13;;;;;;;5.00;100.00;97549.25;4976150;28;20079;-77
2023/11/14 00:30:46;;;;;;;30.63;15.07;;;;;;;4.96;100.00;97536.19;4992980;28;20033;-78
2023/11/14 00:33:12;;;;;;;31.50;15.65;;;;;;;5.00;100.00;97541.31;4976710;28;20100;-76
2023/11/14 00:35:37;;;;;;;35.65;15.90;;;;;;;4.90;100.00;97546.13;4993475;28;20056;-76
2023/11/14 00:38:04;;;;;;;31.48;15.23;;;;;;;4.89;100.00;97557.63;4992913;28;20131;-76
2023/11/14 00:40:29;;;;;;;29.95;14.27;;;;;;;4.84;100.00;97574.63;4973449;28;20050;-77
2023/11/14 00:42:55;;;;;;;27.80;13.55;;;;;;;4.80;100.00;97542.09;4989633;28;20080;-77
2023/11/14 00:45:20;;;;;;;26.50;12.15;;;;;;;4.72;100.00;97553.91;4993097;28;20034;-77
2023/11/14 00:47:46;;;;;;;24.02;12.02;;;;;;;4.69;100.00;97535.50;4993218;28;20025;-77
2023/11/14 00:50:12;;;;;;;26.27;12.73;;;;;;;4.68;100.00;97553.16;4992846;28;20026;-77
2023/11/14 00:52:37;;;;;;;26.15;12.15;;;;;;;4.66;100.00;97525.88;4993185;28;20413;-77
2023/11/14 00:55:04;;;;;;;23.35;12.27;;;;;;;4.69;100.00;97551.38;4992473;28;20042;-76
2023/11/14 00:57:29;;;;;;;23.13;11.95;;;;;;;4.68;100.00;97554.94;4992585;28;20034;-77
2023/11/14 00:59:55;;;;;;;22.30;12.05;;;;;;;4.70;100.00;97566.38;4992881;28;20032;-78
2023/11/14 01:02:21;;;;;;;19.48;10.88;;;;;;;4.67;100.00;97542.66;4976311;28;20026;-76
2023/11/14 01:04:47;;;;;;;20.08;10.57;;;;;;;4.71;100.00;97568.06;4993012;28;20034;-77
2023/11/14 01:07:12;;;;;;;20.08;11.43;;;;;;;4.59;100.00;97556.16;4992483;28;20030;-75
2023/11/14 01:09:38;;;;;;;24.15;11.00;;;;;;;4.54;100.00;97547.53;4992480;28;20026;-76
2023/11/14 01:12:04;;;;;;;23.15;11.50;;;;;;;4.56;100.00;97550.13;4973544;28;20128;-76
2023/11/14 01:14:29;;;;;;;20.65;11.27;;;;;;;4.56;100.00;97528.94;4979063;28;20065;-76
2023/11/14 01:16:55;;;;;;;21.67;11.27;;;;;;;4.57;100.00;97533.31;5014006;28;20121;-76
2023/11/14 01:19:21;;;;;;;24.05;12.23;;;;;;;4.48;100.00;97521.31;4996051;28;20477;-76
2023/11/14 01:21:47;;;;;;;27.77;13.35;;;;;;;4.51;100.00;97520.31;4979961;28;20026;-76
2023/11/14 01:24:13;;;;;;;28.00;13.82;;;;;;;4.46;100.00;97509.03;4996048;28;20116;-77
2023/11/14 01:26:40;;;;;;;30.23;14.15;;;;;;;4.46;100.00;97494.00;4990303;28;20551;-75
2023/11/14 01:29:05;;;;;;;27.23;13.50;;;;;;;4.38;100.00;97485.50;4996300;28;20075;-76
2023/11/14 01:31:31;;;;;;;23.77;12.68;;;;;;;4.42;100.00;97492.41;5013526;28;20432;-75
2023/11/14 01:33:56;;;;;;;25.65;12.75;;;;;;;4.32;100.00;97488.38;5012503;28;20025;-76
2023/11/14 01:36:24;;;;;;;30.85;11.70;;;;;;;4.33;100.00;97480.41;4995905;28;20125;-75
2023/11/14 01:38:52;;;;;;;31.67;12.73;;;;;;;4.30;100.00;97480.50;5013595;28;20029;-76
2023/11/14 01:41:18;;;;;;;25.00;12.23;;;;;;;4.30;100.00;97490.22;5011829;28;20034;-75
2023/11/14 01:43:45;;;;;;;26.58;12.65;;;;;;;4.26;100.00;97481.53;5012250;28;20026;-76
2023/11/14 01:46:15;;;;;;;26.92;12.38;;;;;;;4.22;100.00;97481.69;5012027;28;20068;-76
2023/11/14 01:48:46;;;;;;;24.85;12.07;;;;;;;4.24;100.00;97479.88;5012154;28;20037;-76
2023/11/14 01:51:11;;;;;;;21.50;11.77;;;;;;;4.27;100.00;97479.75;5011901;28;20061;-76
2023/11/14 01:53:38;;;;;;;23.00;12.40;;;;;;;4.16;100.00;97480.16;5011803;28;20519;-76
2023/11/14 01:56:03;;;;;;;27.35;12.13;;;;;;;4.21;100.00;97480.88;5012088;28;20100;-76
2023/11/14 01:58:29;;;;;;;25.98;13.07;;;;;;;4.18;100.00;97482.75;5011668;28;20033;-77
2023/11/14 02:00:55;;;;;;;30.60;13.48;;;;;;;4.21;100.00;97472.94;5011839;28;20030;-75
2023/11/14 02:03:21;;;;;;;26.02;13.20;;;;;;;4.28;100.00;97500.00;5011531;28;20417;-77
2023/11/14 02:05:48;;;;;;;24.67;13.20;;;;;;;4.32;100.00;97485.72;4995424;28;20507;-77
2023/11/14 02:08:14;;;;;;;27.38;13.75;;;;;;;4.31;100.00;97490.16;5011450;28;20029;-76
2023/11/14 02:10:39;;;;;;;29.52;14.55;;;;;;;4.38;100.00;97488.16;5012739;28;20032;-76
2023/11/14 02:13:05;;;;;;;29.88;14.70;;;;;;;4.30;100.00;97490.22;5011563;28;20045;-75
2023/11/14 02:15:31;;;;;;;29.88;15.40;;;;;;;4.26;100.00;97472.72;5011116;28;20532;-76
2023/11/14 02:17:56;;;;;;;28.13;13.73;;;;;;;4.28;100.00;97469.09;5012641;28;20030;-76
2023/11/14 02:20:22;;;;;;;24.17;12.70;;;;;;;4.30;100.00;97472.56;5011232;28;20101;-76
2023/11/14 02:22:49;;;;;;;27.55;13.30;;;;;;;4.28;100.00;97460.28;5011247;28;20198;-76
2023/11/14 02:25:14;;;;;;;27.60;13.85;;;;;;;4.22;100.00;97465.81;5011444;28;20025;-76
2023/11/14 02:27:40;;;;;;;26.48;13.18;;;;;;;4.25;100.00;97466.56;4978520;28;20052;-77
2023/11/14 02:30:06;;;;;;;28.75;13.80;;;;;;;4.21;100.00;97469.41;5012307;28;20033;-76
2023/11/14 02:32:31;;;;;;;25.70;13.73;;;;;;;4.27;100.00;97453.28;4994754;28;20021;-76
2023/11/14 02:34:57;;;;;;;27.58;14.57;;;;;;;4.21;100.00;97483.50;4978638;28;20117;-76
2023/11/14 02:37:23;;;;;;;31.33;14.32;;;;;;;4.21;100.00;97493.22;4994637;28;20485;-75
2023/11/14 02:39:48;;;;;;;25.30;13.13;;;;;;;4.22;100.00;97492.28;4994904;28;20018;-76
2023/11/14 02:42:14;;;;;;;33.70;14.45;;;;;;;4.17;100.00;97483.66;4978373;28;20473;-75
2023/11/14 02:44:39;;;;;;;29.52;13.43;;;;;;;4.21;100.00;97494.09;4994422;28;20033;-76
2023/11/14 02:47:05;;;;;;;25.48;12.55;;;;;;;4.19;100.00;97468.59;4994472;28;20034;-77
2023/11/14 02:49:40;;;;;;;29.50;13.98;;;;;;;4.20;100.00;97496.78;4978005;28;20034;-76
2023/11/14 02:52:06;;;;;;;32.83;13.07;;;;;;;4.18;100.00;97469.53;5011838;28;20041;-76
2023/11/14 02:54:31;;;;;;;29.77;14.00;;;;;;;4.19;100.00;97500.34;5011878;28;20029;-76
2023/11/14 02:56:57;;;;;;;29.65;13.38;;;;;;;4.13;100.00;97490.00;5011927;28;20095;-77
2023/11/14 02:59:22;;;;;;;27.20;12.93;;;;;;;4.21;100.00;97495.88;4994189;28;20032;-76
2023/11/14 03:01:48;;;;;;;32.28;13.15;;;;;;;4.12;100.00;97506.81;5011902;28;20118;-77
2023/11/14 03:04:15;;;;;;;29.70;14.18;;;;;;;4.06;100.00;97501.75;4978131;28;20040;-77
2023/11/14 03:06:40;;;;;;;33.00;15.90;;;;;;;3.93;100.00;97500.47;4977876;28;20026;-76
2023/11/14 03:09:06;;;;;;;32.30;15.50;;;;;;;3.95;100.00;97493.31;5011765;28;20524;-76
2023/11/14 03:11:31;;;;;;;30.95;14.65;;;;;;;3.91;100.00;97500.50;5011564;28;20083;-77
2023/11/14 03:13:57;;;;;;;27.35;14.25;;;;;;;3.86;100.00;97498.94;4977819;28;20402;-77
2023/11/14 03:16:23;;;;;;;27.15;13.70;;;;;;;4.00;100.00;97508.09;4994091;28;20040;-76
2023/11/14 03:18:48;;;;;;;29.05;14.57;;;;;;;3.99;100.00;97492.28;5012233;28;20064;-75
2023/11/14 03:21:17;;;;;;;33.92;13.70;;;;;;;3.96;100.00;97490.63;4993886;28;20041;-76
2023/11/14 03:23:42;;;;;;;28.45;13.38;;;;;;;4.00;100.00;97481.63;4994216;28;20036;-76
2023/11/14 03:26:08;;;;;;;42.53;18.40;;;;;;;3.88;100.00;97486.53;5000162;28;20424;-76
2023/11/14 03:28:34;;;;;;;29.83;14.27;;;;;;;3.93;100.00;97487.22;5010148;28;20104;-76
2023/11/14 03:31:00;;;;;;;33.70;14.95;;;;;;;3.92;100.00;97490.78;5011455;28;20482;-76
2023/11/14 03:33:26;;;;;;;40.50;15.75;;;;;;;3.90;100.00;97474.13;5010245;28;20055;-75
2023/11/14 03:35:51;;;;;;;43.17;20.83;;;;;;;3.94;100.00;97491.63;5010749;28;20497;-74
2023/11/14 03:38:17;;;;;;;32.35;16.33;;;;;;;3.90;100.00;97468.81;4993602;28;20065;-76
2023/11/14 03:40:43;;;;;;;23.92;11.38;;;;;;;3.99;100.00;97474.63;5010095;28;20549;-77
2023/11/14 03:43:09;;;;;;;27.75;12.23;;;;;;;3.94;100.00;97470.44;5009986;28;20032;-76
2023/11/14 03:45:34;;;;;;;75.47;34.03;;;;;;;3.97;100.00;97475.63;5009769;28;20112;-77
2023/11/14 03:48:00;;;;;;;33.83;14.20;;;;;;;3.95;100.00;97458.91;5009940;28;20107;-76
2023/11/14 03:50:26;;;;;;;33.60;14.07;;;;;;;3.96;100.00;97471.25;5009654;28;20040;-77
2023/11/14 03:52:51;;;;;;;38.40;13.48;;;;;;;4.04;100.00;97464.75;5009678;28;20032;-76
2023/11/14 03:55:18;;;;;;;33.15;13.93;;;;;;;4.03;100.00;97462.16;5009668;28;20040;-75
2023/11/14 03:57:44;;;;;;;28.27;13.27;;;;;;;4.12;100.00;97480.34;5009488;28;20037;-75
2023/11/14 04:00:10;;;;;;;29.83;12.57;;;;;;;4.12;100.00;97469.75;5010926;28;20079;-77
2023/11/14 04:02:38;;;;;;;29.63;12.63;;;;;;;4.14;100.00;97462.63;5009785;28;20029;-79
2023/11/14 04:05:06;;;;;;;29.77;13.10;;;;;;;4.23;100.00;97454.31;5009678;28;20509;-76
2023/11/14 04:07:32;;;;;;;24.73;12.80;;;;;;;4.16;100.00;97476.63;5009366;28;20488;-75
2023/11/14 04:09:58;;;;;;;25.92;12.45;;;;;;;4.17;100.00;97476.59;5010505;28;20070;-76
2023/11/14 04:12:24;;;;;;;19.80;8.98;;;;;;;4.22;100.00;97465.81;5010862;28;20055;-76
2023/11/14 04:14:50;;;;;;;21.15;8.60;;;;;;;4.27;100.00;97450.66;5009271;28;20024;-77
2023/11/14 04:17:16;;;;;;;21.75;9.82;;;;;;;4.30;100.00;97447.88;5009382;28;20103;-77
2023/11/14 04:19:44;;;;;;;22.65;11.85;;;;;;;4.31;100.00;97452.22;5010308;28;20030;-77
2023/11/14 04:22:11;;;;;;;20.88;10.27;;;;;;;4.36;100.00;97435.25;5009762;28;20358;-76
2023/11/14 04:24:36;;;;;;;24.08;10.68;;;;;;;4.36;100.00;97437.03;5009398;28;20026;-76
2023/11/14 04:27:02;;;;;;;22.80;10.10;;;;;;;4.40;100.00;97437.78;5008970;28;21573;-77
2023/11/14 04:29:28;;;;;;;23.45;11.32;;;;;;;4.38;100.00;97457.25;5009262;28;20037;-78
2023/11/14 04:31:53;;;;;;;22.67;11.05;;;;;;;4.25;100.00;97444.53;5008751;28;20041;-75
2023/11/14 04:34:19;;;;;;;31.77;10.20;;;;;;;4.29;100.00;97457.59;5009288;28;20084;-77
2023/11/14 04:36:45;;;;;;;24.88;12.63;;;;;;;4.17;100.00;97449.25;5010460;28;20030;-77
2023/11/14 04:39:10;;;;;;;24.55;10.68;;;;;;;4.21;100.00;97456.19;4992948;28;20025;-75
2023/11/14 04:41:36;;;;;;;24.23;10.80;;;;;;;4.26;100.00;97451.56;5009305;28;20040;-76
2023/11/14 04:44:02;;;;;;;26.67;11.73;;;;;;;4.25;100.00;97429.50;5009121;28;20040;-76
2023/11/14 04:46:27;;;;;;;25.20;11.43;;;;;;;4.32;100.00;97446.03;5009137;28;20033;-76
2023/11/14 04:48:54;;;;;;;29.98;13.75;;;;;;;4.34;100.00;97447.69;5012083;28;20032;-77
2023/11/14 04:51:19;;;;;;;32.85;15.07;;;;;;;4.40;100.00;97449.22;5012595;28;20112;-76
2023/11/14 04:53:45;;;;;;;33.30;13.80;;;;;;;4.41;100.00;97450.97;5012819;28;20117;-76
2023/11/14 04:56:17;;;;;;;41.05;16.15;;;;;;;4.51;100.00;97476.16;4996305;28;20025;-76
2023/11/14 04:58:42;;;;;;;30.13;14.10;;;;;;;4.58;100.00;97468.84;5012783;28;20022;-75
2023/11/14 05:01:11;;;;;;;41.17;18.17;;;;;;;4.55;100.00;97475.13;5014125;28;20030;-76
2023/11/14 05:03:37;;;;;;;31.98;15.13;;;;;;;4.60;100.00;97456.38;4994739;28;20421;-76
2023/11/14 05:06:04;;;;;;;35.17;15.30;;;;;;;4.60;100.00;97478.44;5010254;28;20053;-76
2023/11/14 05:08:31;;;;;;;67.38;22.00;;;;;;;4.61;100.00;97471.38;5009923;28;20021;-77
2023/11/14 05:10:56;;;;;;;64.95;22.83;;;;;;;4.60;100.00;97478.44;5011269;28;20394;-76
2023/11/14 05:13:22;;;;;;;64.68;21.63;;;;;;;4.56;100.00;97492.72;5012143;28;20032;-77
2023/11/14 05:15:48;;;;;;;46.88;20.92;;;;;;;4.55;100.00;97485.72;5020497;28;20024;-80
2023/11/14 05:18:13;;;;;;;38.03;16.60;;;;;;;4.60;100.00;97483.75;5013907;28;20108;-76
2023/11/14 05:20:39;;;;;;;40.63;16.67;;;;;;;4.58;100.00;97477.66;5013767;28;20432;-76
2023/11/14 05:23:06;;;;;;;28.00;14.13;;;;;;;4.63;100.00;97488.91;5012733;28;20022;-76
2023/11/14 05:25:32;;;;;;;36.38;14.90;;;;;;;4.68;100.00;97481.66;4996771;28;20050;-76
2023/11/14 05:27:57;;;;;;;147.60;40.40;;;;;;;4.63;100.00;97470.38;5003466;28;20037;-77
2023/11/14 05:30:23;;;;;;;42.17;16.52;;;;;;;4.70;100.00;97481.59;5012245;28;20112;-76
2023/11/14 05:32:48;;;;;;;100.75;30.67;;;;;;;4.80;100.00;97483.81;5012044;28;20022;-76
2023/11/14 05:35:14;;;;;;;73.03;23.83;;;;;;;4.72;100.00;97479.75;5012544;28;20397;-77
2023/11/14 05:37:40;;;;;;;61.88;22.83;;;;;;;4.80;100.00;97485.59;5011657;28;20030;-78
2023/11/14 05:40:09;;;;;;;99.40;32.00;;;;;;;4.85;100.00;97476.56;5012175;28;20030;-76
2023/11/14 05:42:35;;;;;;;126.20;40.47;;;;;;;5.01;100.00;97483.88;5012084;28;20104;-76
2023/11/14 05:45:01;;;;;;;95.65;31.67;;;;;;;4.95;100.00;97479.69;5013391;28;20112;-77
2023/11/14 05:47:26;;;;;;;43.42;18.77;;;;;;;5.07;100.00;97483.63;5012342;28;20049;-77
2023/11/14 05:49:52;;;;;;;95.38;32.42;;;;;;;5.23;100.00;97479.41;5011612;28;20036;-76
2023/11/14 05:52:17;;;;;;;95.43;32.28;;;;;;;5.35;100.00;97494.81;5011879;28;20481;-76
2023/11/14 05:54:43;;;;;;;47.67;17.52;;;;;;;5.46;100.00;97493.41;5012888;28;20033;-76
2023/11/14 05:57:08;;;;;;;53.72;22.02;;;;;;;5.58;100.00;97494.69;5011902;28;20034;-77
2023/11/14 05:59:34;;;;;;;53.53;21.92;;;;;;;5.72;100.00;97507.38;5011212;28;20041;-77
2023/11/14 06:02:00;;;;;;;41.53;14.80;;;;;;;5.88;100.00;97490.72;5011927;28;20030;-76
2023/11/14 06:04:25;;;;;;;42.00;17.25;;;;;;;6.02;100.00;97489.25;5011955;28;20053;-76
2023/11/14 06:06:51;;;;;;;45.08;16.40;;;;;;;6.21;100.00;97482.19;5011562;28;20040;-77
2023/11/14 06:09:18;;;;;;;36.42;16.10;;;;;;;6.87;100.00;97480.78;5012764;28;20032;-76
2023/11/14 06:11:43;;;;;;;41.53;17.77;;;;;;;8.73;100.00;97479.03;4995496;28;20109;-77
2023/11/14 06:14:09;;;;;;;15.75;7.43;;;;;;;10.74;100.00;97461.50;5011500;28;20111;-77
2023/11/14 06:16:35;;;;;;;33.90;12.75;;;;;;;12.50;100.00;97420.88;4995207;28;20080;-76
2023/11/14 06:19:00;;;;;;;38.63;19.08;;;;;;;13.90;100.00;97402.34;5011204;28;20022;-76
2023/11/14 06:21:26;;;;;;;29.30;14.57;;;;;;;14.70;100.00;97401.31;4994936;28;20025;-77
2023/11/14 06:23:53;;;;;;;38.25;15.75;;;;;;;15.62;100.00;97399.00;5012286;28;20405;-76
2023/11/14 06:26:19;;;;;;;30.33;14.73;;;;;;;15.90;94.77;97385.84;4995610;28;20046;-77
2023/11/14 06:28:44;;;;;;;54.47;32.97;;;;;;;16.68;79.62;97365.41;5010999;28;20030;-77
2023/11/14 06:31:10;;;;;;;43.75;21.17;;;;;;;17.37;77.85;97369.94;5010985;28;20416;-77
2023/11/14 06:33:36;;;;;;;50.72;27.15;;;;;;;17.24;77.06;97354.84;5011002;28;20029;-78
2023/11/14 06:36:02;;;;;;;35.88;16.65;;;;;;;17.21;75.64;97365.94;5011259;28;20033;-77
2023/11/14 06:38:27;;;;;;;32.85;17.27;;;;;;;18.25;71.41;97362.47;5011415;28;20098;-77
2023/11/14 06:40:53;;;;;;;52.13;23.55;;;;;;;19.13;63.80;97353.84;5011071;28;20032;-77
2023/11/14 06:43:18;;;;;;;47.20;24.30;;;;;;;19.42;60.77;97368.06;5012423;28;20080;-77
2023/11/14 06:45:44;;;;;;;42.97;22.15;;;;;;;19.77;59.74;97375.38;5011019;28;20041;-76
2023/11/14 06:48:09;;;;;;;33.88;17.60;;;;;;;19.73;58.84;97377.53;5011093;28;20022;-77
2023/11/14 06:50:35;;;;;;;32.97;15.48;;;;;;;20.39;57.34;97358.91;5011011;28;20049;-76
2023/11/14 06:53:01;;;;;;;46.53;19.45;;;;;;;21.16;55.60;97359.81;4995548;28;20032;-77
2023/11/14 06:55:28;;;;;;;51.60;20.70;;;;;;;20.97;54.57;97366.34;5012584;28;20029;-76
2023/11/14 06:57:53;;;;;;;30.27;15.75;;;;;;;20.99;54.81;97356.97;5011106;28;20114;-77
2023/11/14 07:00:19;;;;;;;38.42;17.38;;;;;;;21.69;53.91;97346.63;5010736;28;20109;-76
2023/11/14 07:02:45;;;;;;;41.20;16.30;;;;;;;22.49;50.72;97333.97;5012035;28;20014;-78
2023/11/14 07:05:11;;;;;;;34.20;16.10;;;;;;;22.48;51.15;97327.69;5011126;28;20164;-77
2023/11/14 07:07:40;;;;;;;35.30;17.90;;;;;;;23.17;48.72;97321.47;5011721;28;20413;-77
2023/11/14 07:10:06;;;;;;;43.25;17.13;;;;;;;23.32;47.48;97315.25;5008389;28;20080;-76
2023/11/14 07:12:32;;;;;;;39.15;17.33;;;;;;;23.64;46.42;97309.59;5009861;28;20319;-77
2023/11/14 07:14:58;;;;;;;37.55;20.83;;;;;;;23.69;45.79;97313.47;5011653;28;20022;-77
2023/11/14 07:17:24;;;;;;;26.67;14.32;;;;;;;23.29;45.95;97321.91;5011577;28;20109;-76
2023/11/14 07:19:50;;;;;;;29.70;15.10;;;;;;;23.82;46.43;97317.47;5010491;28;20101;-77
2023/11/14 07:22:15;;;;;;;60.58;26.55;;;;;;;24.08;45.44;97309.75;5010228;28;20037;-77
2023/11/14 07:24:43;;;;;;;45.15;18.60;;;;;;;24.12;45.97;97324.75;5010408;28;20044;-77
2023/11/14 07:27:09;;;;;;;14.77;7.85;;;;;;;24.54;44.98;97311.34;4993214;28;20516;-77
2023/11/14 07:29:34;;;;;;;27.25;11.55;;;;;;;24.81;44.06;97320.81;5010246;28;20038;-77
2023/11/14 07:32:00;;;;;;;33.33;15.45;;;;;;;25.37;44.38;97315.63;5009901;28;20092;-77
2023/11/14 07:34:26;;;;;;;15.27;8.48;;;;;;;25.59;42.26;97303.69;4993420;28;20025;-76
2023/11/14 07:36:52;;;;;;;30.88;12.30;;;;;;;25.98;41.83;97305.97;4993340;28;20034;-77
2023/11/14 07:39:18;;;;;;;8.63;4.57;;;;;;;25.67;41.44;97306.28;4993515;28;20477;-77
2023/11/14 07:41:43;;;;;;;49.85;15.27;;;;;;;25.83;42.91;97317.00;5011065;28;20026;-78
2023/11/14 07:44:09;;;;;;;11.70;5.93;;;;;;;26.02;42.28;97310.88;5010993;28;20073;-77
2023/11/14 07:46:38;;;;;;;33.13;15.98;;;;;;;26.04;42.04;97300.53;4993442;28;20028;-78
2023/11/14 07:49:04;;;;;;;13.30;4.93;;;;;;;26.64;40.39;97301.88;4993876;28;20056;-77
2023/11/14 07:51:31;;;;;;;33.75;13.38;;;;;;;26.42;41.39;97305.72;5009759;28;20033;-77
2023/11/14 07:53:58;;;;;;;23.80;8.57;;;;;;;26.05;39.08;97296.75;5009633;28;20313;-77
2023/11/14 07:56:24;;;;;;;29.98;7.68;;;;;;;26.02;39.49;97305.38;5011161;28;20025;-78
2023/11/14 07:58:50;;;;;;;8.15;3.85;;;;;;;25.82;38.87;97287.91;5009823;28;20028;-77
2023/11/14 08:01:16;;;;;;;10.48;2.22;;;;;;;25.97;37.51;97280.44;5009614;28;20026;-77
2023/11/14 08:03:42;;;;;;;19.23;7.93;;;;;;;26.79;37.57;97283.38;4993146;28;20065;-77
2023/11/14 08:06:07;;;;;;;10.30;4.10;;;;;;;27.35;34.50;97270.31;5009756;28;20057;-77
2023/11/14 08:08:33;;;;;;;13.00;5.82;;;;;;;27.80;35.04;97269.63;5009525;28;20405;-78
2023/11/14 08:10:59;;;;;;;18.33;6.47;;;;;;;28.16;35.50;97274.75;5009490;28;20103;-77
2023/11/14 08:13:25;;;;;;;9.45;4.22;;;;;;;27.65;34.11;97271.72;4993488;28;20474;-77
2023/11/14 08:15:50;;;;;;;6.85;3.08;;;;;;;28.05;33.59;97256.13;5009464;28;20517;-78
2023/11/14 08:18:16;;;;;;;10.90;3.70;;;;;;;28.17;34.88;97270.09;5009768;28;20369;-77
2023/11/14 08:20:41;;;;;;;9.40;4.07;;;;;;;28.72;33.62;97263.25;5009339;28;20449;-77
2023/11/14 08:23:07;;;;;;;7.30;3.83;;;;;;;28.75;32.71;97257.31;4995564;28;20038;-77
2023/11/14 08:25:33;;;;;;;6.70;4.63;;;;;;;28.60;31.69;97248.44;5013352;28;20046;-77
2023/11/14 08:27:59;;;;;;;7.85;3.10;;;;;;;28.81;33.11;97257.31;5014018;28;20029;-78
2023/11/14 08:30:27;;;;;;;12.48;3.50;;;;;;;29.13;32.03;97246.38;5007080;28;20030;-78
2023/11/14 08:32:56;;;;;;;10.60;3.20;;;;;;;28.88;31.70;97257.28;4996271;28;20040;-79
2023/11/14 08:35:25;;;;;;;3.03;1.98;;;;;;;29.06;31.35;97254.66;4997027;28;20095;-77
2023/11/14 08:37:54;;;;;;;4.95;2.53;;;;;;;29.08;31.14;97260.81;4997046;28;20041;-78
2023/11/14 08:40:21;;;;;;;5.03;2.60;;;;;;;29.26;31.22;97244.41;4997057;28;20075;-78
2023/11/14 08:42:51;;;;;;;9.52;3.42;;;;;;;29.87;32.21;97241.13;4996744;28;20041;-77
2023/11/14 08:45:16;;;;;;;6.70;3.45;;;;;;;29.73;31.66;97239.47;5013322;28;20499;-77
2023/11/14 08:47:42;;;;;;;7.88;3.00;;;;;;;30.60;30.14;97240.25;5013202;28;20046;-78
2023/11/14 08:50:09;;;;;;;11.30;5.18;;;;;;;30.52;30.41;97228.66;4997367;28;20034;-78
2023/11/14 08:52:35;;;;;;;11.68;3.88;;;;;;;30.05;31.02;97243.94;5005169;28;20033;-78
2023/11/14 08:55:01;;;;;;;6.82;3.47;;;;;;;30.92;29.78;97245.63;5012986;28;20037;-78
2023/11/14 08:57:28;;;;;;;4.85;2.95;;;;;;;30.85;29.66;97253.16;4996798;28;20034;-77
2023/11/14 08:59:57;;;;;;;7.38;3.30;;;;;;;31.30;29.63;97260.06;5012977;28;20018;-77
2023/11/14 09:02:23;;;;;;;6.47;3.00;;;;;;;31.81;28.10;97250.47;5013356;28;20022;-77
2023/11/14 09:04:49;;;;;;;7.18;2.92;;;;;;;31.64;28.70;97251.13;5013153;28;20030;-78
2023/11/14 09:07:15;;;;;;;10.70;3.00;;;;;;;31.98;28.01;97240.38;5012607;28;20049;-78
2023/11/14 09:09:44;;;;;;;2.58;1.55;;;;;;;32.20;26.89;97228.53;4996496;28;20440;-76
2023/11/14 09:12:10;;;;;;;4.45;2.25;;;;;;;32.06;26.90;97221.53;4996416;28;20473;-77
2023/11/14 09:14:36;;;;;;;3.42;1.45;;;;;;;31.17;27.41;97218.78;4996500;28;20041;-78
2023/11/14 09:17:04;;;;;;;6.78;1.98;;;;;;;32.34;27.37;97215.28;4996126;28;20061;-78
2023/11/14 09:19:31;;;;;;;12.57;2.08;;;;;;;33.11;26.29;97210.44;5013177;28;20489;-79
2023/11/14 09:21:58;;;;;;;6.28;1.70;;;;;;;33.30;26.27;97216.63;4996440;28;20018;-79
2023/11/14 09:24:23;;;;;;;2.65;1.90;;;;;;;32.18;26.12;97207.69;5012528;28;20473;-78
2023/11/14 09:26:49;;;;;;;5.25;1.25;;;;;;;31.35;27.08;97191.06;5012526;28;20052;-77
2023/11/14 09:29:15;;;;;;;3.00;1.23;;;;;;;31.40;26.58;97182.94;4996667;28;20076;-77
2023/11/14 09:31:41;;;;;;;0.77;0.65;;;;;;;30.60;26.99;97193.31;4995938;28;20425;-78
2023/11/14 09:34:06;;;;;;;4.60;1.55;;;;;;;30.45;27.24;97195.59;4995847;28;20383;-78
2023/11/14 09:36:32;;;;;;;3.80;1.20;;;;;;;30.33;27.94;97182.75;4996164;28;20033;-79
2023/11/14 09:38:57;;;;;;;3.38;1.30;;;;;;;30.81;27.47;97178.19;4996107;28;20022;-79
2023/11/14 09:41:24;;;;;;;1.58;1.20;;;;;;;31.50;26.36;97161.09;5013818;28;20124;-78
2023/11/14 09:43:49;;;;;;;1.95;1.00;;;;;;;31.62;26.23;97174.97;5012313;28;20115;-79
2023/11/14 09:46:15;;;;;;;9.85;1.83;;;;;;;32.02;25.85;97158.56;5012169;28;20053;-79
2023/11/14 09:48:42;;;;;;;2.55;1.80;;;;;;;31.98;25.62;97149.88;4995794;28;20025;-77
2023/11/14 09:51:09;;;;;;;4.43;2.58;;;;;;;32.89;25.02;97148.38;5012266;28;20115;-77
2023/11/14 09:53:45;;;;;;;22.13;14.05;;;;;;;32.87;24.47;97151.41;4995673;28;20139;-78
2023/11/14 09:56:20;;;;;;;6.55;3.42;;;;;;;32.61;25.26;97149.16;5014341;28;20029;-78
2023/11/14 09:58:51;;;;;;;2.17;1.70;;;;;;;31.84;26.18;97142.88;5012655;28;20032;-78
2023/11/14 10:01:16;;;;;;;2.43;1.50;;;;;;;31.67;26.08;97134.47;5011747;28;20030;-78
2023/11/14 10:03:42;;;;;;;1.60;0.98;;;;;;;31.56;25.84;97132.50;5012160;28;20036;-78
2023/11/14 10:06:08;;;;;;;1.45;1.10;;;;;;;30.73;26.65;97142.59;5013308;28;20049;-78
2023/11/14 10:08:36;;;;;;;1.90;1.30;;;;;;;31.93;26.09;97137.84;5011702;28;20026;-78
2023/11/14 10:11:09;;;;;;;3.80;1.17;;;;;;;32.24;24.99;97122.84;4995767;28;20022;-79
2023/11/14 10:13:38;;;;;;;1.60;0.90;;;;;;;32.51;24.91;97118.47;4995855;28;20092;-80
2023/11/14 10:16:19;;;;;;;3.28;1.00;;;;;;;31.29;25.69;97131.19;5011665;28;20037;-78
2023/11/14 10:18:49;;;;;;;2.15;0.90;;;;;;;30.51;26.08;97122.91;5011258;28;20038;-79
2023/11/14 10:21:28;;;;;;;2.72;1.25;;;;;;;31.03;26.06;97120.53;5011689;28;20054;-79
2023/11/14 10:23:56;;;;;;;16.10;1.70;;;;;;;29.66;27.34;97128.34;5011508;28;20029;-78
2023/11/14 10:26:25;;;;;;;6.80;1.00;;;;;;;30.69;26.81;97138.59;4994994;28;20053;-79
2023/11/14 10:28:56;;;;;;;3.67;1.35;;;;;;;30.85;26.57;97117.78;4994787;28;20479;-78
2023/11/14 10:31:41;;;;;;;1.93;1.10;;;;;;;30.32;26.85;97123.94;5011142;28;20022;-78
2023/11/14 10:34:11;;;;;;;2.05;1.00;;;;;;;30.32;26.19;97104.59;5011530;28;20034;-78
2023/11/14 10:36:46;;;;;;;1.88;0.80;;;;;;;28.43;27.47;97104.91;5011029;28;20030;-78
2023/11/14 10:39:12;;;;;;;2.05;0.88;;;;;;;27.24;28.66;97093.22;4994759;28;20026;-78
2023/11/14 10:41:37;;;;;;;1.40;0.90;;;;;;;27.67;29.17;97085.41;5011174;28;20394;-78
2023/11/14 10:44:10;;;;;;;1.00;0.70;;;;;;;28.04;27.90;97089.38;5010888;28;20029;-80
2023/11/14 10:46:36;;;;;;;2.35;1.15;;;;;;;28.67;28.14;97081.34;5009929;28;20346;-79
2023/11/14 10:49:09;;;;;;;2.50;0.98;;;;;;;29.11;28.08;97073.00;4994539;28;20026;-79
2023/11/14 10:51:36;;;;;;;1.45;0.80;;;;;;;29.84;26.59;97059.50;4995077;28;20084;-80
2023/11/14 10:54:08;;;;;;;3.03;0.85;;;;;;;27.95;27.96;97075.00;4993096;28;20076;-78
2023/11/14 10:56:37;;;;;;;2.17;0.60;;;;;;;28.70;27.27;97058.88;5011049;28;20021;-79
2023/11/14 10:59:10;;;;;;;4.20;1.10;;;;;;;29.06;27.72;97059.06;5010502;28;20021;-79
2023/11/14 11:01:46;;;;;;;4.90;1.23;;;;;;;29.14;27.60;97050.50;5010657;28;20053;-78
2023/11/14 11:04:17;;;;;;;1.27;0.90;;;;;;;29.07;27.37;97043.38;4993875;28;20044;-78
2023/11/14 11:06:48;;;;;;;2.13;0.83;;;;;;;29.95;27.08;97051.31;4994217;28;20030;-79
2023/11/14 11:09:15;;;;;;;3.25;0.70;;;;;;;29.19;27.65;97056.22;4994291;28;20029;-79
2023/11/14 11:11:44;;;;;;;1.40;1.05;;;;;;;29.73;27.21;97057.44;5010506;28;20026;-78
2023/11/14 11:14:12;;;;;;;4.78;1.70;;;;;;;29.96;27.29;97066.78;5010519;28;20034;-79
2023/11/14 11:16:45;;;;;;;2.03;1.20;;;;;;;31.07;25.99;97041.63;5010303;28;20025;-79
2023/11/14 11:19:17;;;;;;;1.10;0.90;;;;;;;30.99;25.19;97036.41;4993833;28;20029;-80